sensor_id;sensor_type;location;lat;lon;timestamp;temperature;humidity
2767;DHT22;1391;46.74287300;11.63683300;2023-04-24T00:02:03;11.30;99.90
2767;DHT22;1391;46.74287300;11.63683300;2023-04-24T00:04:32;11.10;99.90
2767;DHT22;1391;46.74287300;11.63683300;2023-04-24T00:06:59;11.10;99.90
2767;DHT22;1391;46.74287300;11.63683300;2023-04-24T00:09:26;11.10;99.90
2767;DHT22;1391;46.74287300;11.63683300;2023-04-24T00:11:54;10.70;99.90
2767;DHT22;1391;46.74287300;11.63683300;2023-04-24T00:14:21;11.20;99.90
2767;DHT22;1391;46.74287300;11.63683300;2023-04-24T00:16:50;11.00;99.90
2767;DHT22;1391;46.74287300;11.63683300;2023-04-24T00:19:18;10.90;99.90
2767;DHT22;1391;46.74287300;11.63683300;2023-04-24T00:21:47;10.80;99.90
2767;DHT22;1391;46.74287300;11.63683300;2023-04-24T00:24:15;11.00;99.90
2767;DHT22;1391;46.74287300;11.63683300;2023-04-24T00:26:43;10.60;99.90
2767;DHT22;1391;46.74287300;11.63683300;2023-04-24T00:29:10;10.60;99.90
2767;DHT22;1391;46.74287300;11.63683300;2023-04-24T00:31:38;11.00;99.90
2767;DHT22;1391;46.74287300;11.63683300;2023-04-24T00:34:07;10.90;99.90
2767;DHT22;1391;46.74287300;11.63683300;2023-04-24T00:36:34;11.00;99.90
2767;DHT22;1391;46.74287300;11.63683300;2023-04-24T00:39:01;10.90;99.90
2767;DHT22;1391;46.74287300;11.63683300;2023-04-24T00:41:29;11.00;99.90
2767;DHT22;1391;46.74287300;11.63683300;2023-04-24T00:43:57;10.80;99.90
2767;DHT22;1391;46.74287300;11.63683300;2023-04-24T00:46:25;10.90;99.90
2767;DHT22;1391;46.74287300;11.63683300;2023-04-24T00:48:52;11.00;99.90
2767;DHT22;1391;46.74287300;11.63683300;2023-04-24T00:51:21;10.90;99.90
2767;DHT22;1391;46.74287300;11.63683300;2023-04-24T00:53:50;11.00;99.90
2767;DHT22;1391;46.74287300;11.63683300;2023-04-24T00:56:18;10.90;99.90
2767;DHT22;1391;46.74287300;11.63683300;2023-04-24T00:58:46;11.00;99.90
2767;DHT22;1391;46.74287300;11.63683300;2023-04-24T01:01:14;10.50;99.90
2767;DHT22;1391;46.74287300;11.63683300;2023-04-24T01:03:41;10.60;99.90
2767;DHT22;1391;46.74287300;11.63683300;2023-04-24T01:06:09;10.70;99.90
2767;DHT22;1391;46.74287300;11.63683300;2023-04-24T01:08:38;10.50;99.90
2767;DHT22;1391;46.74287300;11.63683300;2023-04-24T01:11:06;10.30;99.90
2767;DHT22;1391;46.74287300;11.63683300;2023-04-24T01:13:34;10.20;99.90
2767;DHT22;1391;46.74287300;11.63683300;2023-04-24T01:16:02;10.30;99.90
2767;DHT22;1391;46.74287300;11.63683300;2023-04-24T01:18:29;10.20;99.90
2767;DHT22;1391;46.74287300;11.63683300;2023-04-24T01:20:58;10.30;99.90
2767;DHT22;1391;46.74287300;11.63683300;2023-04-24T01:23:27;10.30;99.90
2767;DHT22;1391;46.74287300;11.63683300;2023-04-24T01:25:55;9.90;99.90
2767;DHT22;1391;46.74287300;11.63683300;2023-04-24T01:28:22;9.90;99.90
2767;DHT22;1391;46.74287300;11.63683300;2023-04-24T01:30:50;9.90;99.90
2767;DHT22;1391;46.74287300;11.63683300;2023-04-24T01:33:18;10.00;99.90
2767;DHT22;1391;46.74287300;11.63683300;2023-04-24T01:35:46;9.60;99.90
2767;DHT22;1391;46.74287300;11.63683300;2023-04-24T01:38:14;9.90;99.90
2767;DHT22;1391;46.74287300;11.63683300;2023-04-24T01:40:43;9.90;99.90
2767;DHT22;1391;46.74287300;11.63683300;2023-04-24T01:43:11;9.90;99.90
2767;DHT22;1391;46.74287300;11.63683300;2023-04-24T01:45:39;9.90;99.90
2767;DHT22;1391;46.74287300;11.63683300;2023-04-24T01:48:06;9.90;99.90
2767;DHT22;1391;46.74287300;11.63683300;2023-04-24T01:50:33;9.90;99.90
2767;DHT22;1391;46.74287300;11.63683300;2023-04-24T01:53:01;9.90;99.90
2767;DHT22;1391;46.74287300;11.63683300;2023-04-24T01:55:29;9.60;99.90
2767;DHT22;1391;46.74287300;11.63683300;2023-04-24T01:57:59;9.60;99.90
2767;DHT22;1391;46.74287300;11.63683300;2023-04-24T02:00:27;9.80;99.90
2767;DHT22;1391;46.74287300;11.63683300;2023-04-24T02:02:55;9.70;99.90
2767;DHT22;1391;46.74287300;11.63683300;2023-04-24T02:05:22;9.30;99.90
2767;DHT22;1391;46.74287300;11.63683300;2023-04-24T02:07:50;9.50;99.90
2767;DHT22;1391;46.74287300;11.63683300;2023-04-24T02:10:17;9.60;99.90
2767;DHT22;1391;46.74287300;11.63683300;2023-04-24T02:12:45;9.60;99.90
2767;DHT22;1391;46.74287300;11.63683300;2023-04-24T02:15:13;9.50;99.90
2767;DHT22;1391;46.74287300;11.63683300;2023-04-24T02:17:41;9.30;99.90
2767;DHT22;1391;46.74287300;11.63683300;2023-04-24T02:20:08;9.50;99.90
2767;DHT22;1391;46.74287300;11.63683300;2023-04-24T02:22:36;9.60;99.90
2767;DHT22;1391;46.74287300;11.63683300;2023-04-24T02:25:04;9.50;99.90
2767;DHT22;1391;46.74287300;11.63683300;2023-04-24T02:27:32;9.60;99.90
2767;DHT22;1391;46.74287300;11.63683300;2023-04-24T02:29:59;9.60;99.90
2767;DHT22;1391;46.74287300;11.63683300;2023-04-24T02:32:28;9.50;99.90
2767;DHT22;1391;46.74287300;11.63683300;2023-04-24T02:34:56;9.20;99.90
2767;DHT22;1391;46.74287300;11.63683300;2023-04-24T02:37:23;9.30;99.90
2767;DHT22;1391;46.74287300;11.63683300;2023-04-24T02:39:51;9.20;99.90
2767;DHT22;1391;46.74287300;11.63683300;2023-04-24T02:42:18;9.40;99.90
2767;DHT22;1391;46.74287300;11.63683300;2023-04-24T02:44:45;9.40;99.90
2767;DHT22;1391;46.74287300;11.63683300;2023-04-24T02:47:12;9.50;99.90
2767;DHT22;1391;46.74287300;11.63683300;2023-04-24T02:49:41;9.50;99.90
2767;DHT22;1391;46.74287300;11.63683300;2023-04-24T02:52:08;9.20;99.90
2767;DHT22;1391;46.74287300;11.63683300;2023-04-24T02:54:36;9.40;99.90
2767;DHT22;1391;46.74287300;11.63683300;2023-04-24T02:57:03;9.40;99.90
2767;DHT22;1391;46.74287300;11.63683300;2023-04-24T02:59:31;9.40;99.90
2767;DHT22;1391;46.74287300;11.63683300;2023-04-24T03:01:59;9.40;99.90
2767;DHT22;1391;46.74287300;11.63683300;2023-04-24T03:04:26;9.30;99.90
2767;DHT22;1391;46.74287300;11.63683300;2023-04-24T03:06:55;9.60;99.90
2767;DHT22;1391;46.74287300;11.63683300;2023-04-24T03:09:22;9.50;99.90
2767;DHT22;1391;46.74287300;11.63683300;2023-04-24T03:11:49;9.20;99.90
2767;DHT22;1391;46.74287300;11.63683300;2023-04-24T03:14:17;9.50;99.90
2767;DHT22;1391;46.74287300;11.63683300;2023-04-24T03:16:44;9.50;99.90
2767;DHT22;1391;46.74287300;11.63683300;2023-04-24T03:19:12;9.20;99.90
2767;DHT22;1391;46.74287300;11.63683300;2023-04-24T03:21:39;9.40;99.90
2767;DHT22;1391;46.74287300;11.63683300;2023-04-24T03:24:08;9.50;99.90
2767;DHT22;1391;46.74287300;11.63683300;2023-04-24T03:26:36;9.20;99.90
2767;DHT22;1391;46.74287300;11.63683300;2023-04-24T03:29:04;9.10;99.90
2767;DHT22;1391;46.74287300;11.63683300;2023-04-24T03:31:32;9.10;99.90
2767;DHT22;1391;46.74287300;11.63683300;2023-04-24T03:33:59;8.70;99.90
2767;DHT22;1391;46.74287300;11.63683300;2023-04-24T03:36:27;8.70;99.90
2767;DHT22;1391;46.74287300;11.63683300;2023-04-24T03:38:56;9.50;99.90
2767;DHT22;1391;46.74287300;11.63683300;2023-04-24T03:41:25;8.90;99.90
2767;DHT22;1391;46.74287300;11.63683300;2023-04-24T03:43:53;9.10;99.90
2767;DHT22;1391;46.74287300;11.63683300;2023-04-24T03:46:21;9.10;99.90
2767;DHT22;1391;46.74287300;11.63683300;2023-04-24T03:48:49;9.30;99.90
2767;DHT22;1391;46.74287300;11.63683300;2023-04-24T03:51:16;9.30;99.90
2767;DHT22;1391;46.74287300;11.63683300;2023-04-24T03:53:46;8.90;99.90
2767;DHT22;1391;46.74287300;11.63683300;2023-04-24T03:56:14;8.80;99.90
2767;DHT22;1391;46.74287300;11.63683300;2023-04-24T03:58:43;8.80;99.90
2767;DHT22;1391;46.74287300;11.63683300;2023-04-24T04:01:11;8.60;99.90
2767;DHT22;1391;46.74287300;11.63683300;2023-04-24T04:03:38;8.50;99.90
2767;DHT22;1391;46.74287300;11.63683300;2023-04-24T04:06:07;8.60;99.90
2767;DHT22;1391;46.74287300;11.63683300;2023-04-24T04:08:36;8.90;99.90
2767;DHT22;1391;46.74287300;11.63683300;2023-04-24T04:11:04;8.50;99.90
2767;DHT22;1391;46.74287300;11.63683300;2023-04-24T04:13:31;8.70;99.90
2767;DHT22;1391;46.74287300;11.63683300;2023-04-24T04:16:00;8.50;99.90
2767;DHT22;1391;46.74287300;11.63683300;2023-04-24T04:18:29;8.60;99.90
2767;DHT22;1391;46.74287300;11.63683300;2023-04-24T04:20:56;8.60;99.90
2767;DHT22;1391;46.74287300;11.63683300;2023-04-24T04:23:24;8.60;99.90
2767;DHT22;1391;46.74287300;11.63683300;2023-04-24T04:25:51;8.60;99.90
2767;DHT22;1391;46.74287300;11.63683300;2023-04-24T04:28:20;8.60;99.90
2767;DHT22;1391;46.74287300;11.63683300;2023-04-24T04:30:48;8.60;99.90
2767;DHT22;1391;46.74287300;11.63683300;2023-04-24T04:33:17;8.60;99.90
2767;DHT22;1391;46.74287300;11.63683300;2023-04-24T04:35:44;8.60;99.90
2767;DHT22;1391;46.74287300;11.63683300;2023-04-24T04:38:14;8.60;99.90
2767;DHT22;1391;46.74287300;11.63683300;2023-04-24T04:40:42;8.70;99.90
2767;DHT22;1391;46.74287300;11.63683300;2023-04-24T04:43:10;8.40;99.90
2767;DHT22;1391;46.74287300;11.63683300;2023-04-24T04:45:39;8.30;99.90
2767;DHT22;1391;46.74287300;11.63683300;2023-04-24T04:48:07;8.20;99.90
2767;DHT22;1391;46.74287300;11.63683300;2023-04-24T04:50:36;8.50;99.90
2767;DHT22;1391;46.74287300;11.63683300;2023-04-24T04:53:03;8.60;99.90
2767;DHT22;1391;46.74287300;11.63683300;2023-04-24T04:55:30;8.60;99.90
2767;DHT22;1391;46.74287300;11.63683300;2023-04-24T04:57:58;8.60;99.90
2767;DHT22;1391;46.74287300;11.63683300;2023-04-24T05:00:25;8.60;99.90
2767;DHT22;1391;46.74287300;11.63683300;2023-04-24T05:02:54;8.60;99.90
2767;DHT22;1391;46.74287300;11.63683300;2023-04-24T05:05:22;8.60;99.90
2767;DHT22;1391;46.74287300;11.63683300;2023-04-24T05:07:50;8.60;99.90
2767;DHT22;1391;46.74287300;11.63683300;2023-04-24T05:10:18;8.20;99.90
2767;DHT22;1391;46.74287300;11.63683300;2023-04-24T05:12:45;8.40;99.90
2767;DHT22;1391;46.74287300;11.63683300;2023-04-24T05:15:12;8.30;99.90
2767;DHT22;1391;46.74287300;11.63683300;2023-04-24T05:17:40;8.30;99.90
2767;DHT22;1391;46.74287300;11.63683300;2023-04-24T05:20:08;8.30;99.90
2767;DHT22;1391;46.74287300;11.63683300;2023-04-24T05:22:35;8.30;99.90
2767;DHT22;1391;46.74287300;11.63683300;2023-04-24T05:25:04;8.20;99.90
2767;DHT22;1391;46.74287300;11.63683300;2023-04-24T05:27:32;8.30;99.90
2767;DHT22;1391;46.74287300;11.63683300;2023-04-24T05:29:59;8.30;99.90
2767;DHT22;1391;46.74287300;11.63683300;2023-04-24T05:32:28;8.30;99.90
2767;DHT22;1391;46.74287300;11.63683300;2023-04-24T05:34:58;8.20;99.90
2767;DHT22;1391;46.74287300;11.63683300;2023-04-24T05:37:25;8.40;99.90
2767;DHT22;1391;46.74287300;11.63683300;2023-04-24T05:39:53;8.30;99.90
2767;DHT22;1391;46.74287300;11.63683300;2023-04-24T05:42:22;8.30;99.90
2767;DHT22;1391;46.74287300;11.63683300;2023-04-24T05:44:49;8.20;99.90
2767;DHT22;1391;46.74287300;11.63683300;2023-04-24T05:47:17;8.40;99.90
2767;DHT22;1391;46.74287300;11.63683300;2023-04-24T05:49:44;8.30;99.90
2767;DHT22;1391;46.74287300;11.63683300;2023-04-24T05:52:12;8.30;99.90
2767;DHT22;1391;46.74287300;11.63683300;2023-04-24T05:54:39;8.30;99.90
2767;DHT22;1391;46.74287300;11.63683300;2023-04-24T05:57:07;8.30;99.90
2767;DHT22;1391;46.74287300;11.63683300;2023-04-24T05:59:37;8.30;99.90
2767;DHT22;1391;46.74287300;11.63683300;2023-04-24T06:02:05;8.30;99.90
2767;DHT22;1391;46.74287300;11.63683300;2023-04-24T06:04:33;8.30;99.90
2767;DHT22;1391;46.74287300;11.63683300;2023-04-24T06:07:01;8.30;99.90
2767;DHT22;1391;46.74287300;11.63683300;2023-04-24T06:09:28;8.20;99.90
2767;DHT22;1391;46.74287300;11.63683300;2023-04-24T06:11:56;8.40;99.90
2767;DHT22;1391;46.74287300;11.63683300;2023-04-24T06:14:24;8.30;99.90
2767;DHT22;1391;46.74287300;11.63683300;2023-04-24T06:16:52;8.30;99.90
2767;DHT22;1391;46.74287300;11.63683300;2023-04-24T06:19:20;8.30;99.90
2767;DHT22;1391;46.74287300;11.63683300;2023-04-24T06:21:47;8.30;99.90
2767;DHT22;1391;46.74287300;11.63683300;2023-04-24T06:24:15;8.30;99.90
2767;DHT22;1391;46.74287300;11.63683300;2023-04-24T06:26:42;8.30;99.90
2767;DHT22;1391;46.74287300;11.63683300;2023-04-24T06:29:10;8.30;99.90
2767;DHT22;1391;46.74287300;11.63683300;2023-04-24T06:31:37;8.30;99.90
2767;DHT22;1391;46.74287300;11.63683300;2023-04-24T06:34:07;8.30;99.90
2767;DHT22;1391;46.74287300;11.63683300;2023-04-24T06:36:34;8.30;99.90
2767;DHT22;1391;46.74287300;11.63683300;2023-04-24T06:39:02;8.60;99.90
2767;DHT22;1391;46.74287300;11.63683300;2023-04-24T06:41:29;8.90;99.90
2767;DHT22;1391;46.74287300;11.63683300;2023-04-24T06:43:57;8.70;99.90
2767;DHT22;1391;46.74287300;11.63683300;2023-04-24T06:46:24;8.70;99.90
2767;DHT22;1391;46.74287300;11.63683300;2023-04-24T06:48:53;8.80;99.90
2767;DHT22;1391;46.74287300;11.63683300;2023-04-24T06:51:23;8.90;99.90
2767;DHT22;1391;46.74287300;11.63683300;2023-04-24T06:53:51;8.70;99.90
2767;DHT22;1391;46.74287300;11.63683300;2023-04-24T06:56:19;8.60;99.90
2767;DHT22;1391;46.74287300;11.63683300;2023-04-24T06:58:47;8.90;99.90
2767;DHT22;1391;46.74287300;11.63683300;2023-04-24T07:01:14;8.70;99.90
2767;DHT22;1391;46.74287300;11.63683300;2023-04-24T07:03:42;8.70;99.90
2767;DHT22;1391;46.74287300;11.63683300;2023-04-24T07:06:09;8.80;99.90
2767;DHT22;1391;46.74287300;11.63683300;2023-04-24T07:08:39;9.00;99.90
2767;DHT22;1391;46.74287300;11.63683300;2023-04-24T07:11:08;8.90;99.90
2767;DHT22;1391;46.74287300;11.63683300;2023-04-24T07:13:35;8.70;99.90
2767;DHT22;1391;46.74287300;11.63683300;2023-04-24T07:16:07;8.70;99.90
2767;DHT22;1391;46.74287300;11.63683300;2023-04-24T07:18:34;8.60;99.90
2767;DHT22;1391;46.74287300;11.63683300;2023-04-24T07:21:02;8.90;99.90
2767;DHT22;1391;46.74287300;11.63683300;2023-04-24T07:23:29;8.70;99.90
2767;DHT22;1391;46.74287300;11.63683300;2023-04-24T07:25:58;8.80;99.90
2767;DHT22;1391;46.74287300;11.63683300;2023-04-24T07:28:26;8.90;99.90
2767;DHT22;1391;46.74287300;11.63683300;2023-04-24T07:30:56;8.70;99.90
2767;DHT22;1391;46.74287300;11.63683300;2023-04-24T07:33:26;8.70;99.90
2767;DHT22;1391;46.74287300;11.63683300;2023-04-24T07:35:54;8.70;99.90
2767;DHT22;1391;46.74287300;11.63683300;2023-04-24T07:38:22;8.60;99.90
2767;DHT22;1391;46.74287300;11.63683300;2023-04-24T07:40:51;8.90;99.90
2767;DHT22;1391;46.74287300;11.63683300;2023-04-24T07:43:20;9.10;99.90
2767;DHT22;1391;46.74287300;11.63683300;2023-04-24T07:45:50;8.70;99.90
2767;DHT22;1391;46.74287300;11.63683300;2023-04-24T07:48:18;8.70;99.90
2767;DHT22;1391;46.74287300;11.63683300;2023-04-24T07:50:47;8.80;99.90
2767;DHT22;1391;46.74287300;11.63683300;2023-04-24T07:53:15;9.30;99.90
2767;DHT22;1391;46.74287300;11.63683300;2023-04-24T07:55:43;9.40;99.90
2767;DHT22;1391;46.74287300;11.63683300;2023-04-24T07:58:10;9.50;99.90
2767;DHT22;1391;46.74287300;11.63683300;2023-04-24T08:00:39;9.30;99.90
2767;DHT22;1391;46.74287300;11.63683300;2023-04-24T08:03:06;9.30;99.90
2767;DHT22;1391;46.74287300;11.63683300;2023-04-24T08:05:33;9.40;99.90
2767;DHT22;1391;46.74287300;11.63683300;2023-04-24T08:08:01;9.10;99.90
2767;DHT22;1391;46.74287300;11.63683300;2023-04-24T08:10:31;9.50;99.90
2767;DHT22;1391;46.74287300;11.63683300;2023-04-24T08:12:59;9.70;99.90
2767;DHT22;1391;46.74287300;11.63683300;2023-04-24T08:15:27;9.80;99.90
2767;DHT22;1391;46.74287300;11.63683300;2023-04-24T08:17:57;9.50;99.90
2767;DHT22;1391;46.74287300;11.63683300;2023-04-24T08:20:24;9.70;99.90
2767;DHT22;1391;46.74287300;11.63683300;2023-04-24T08:22:52;9.80;99.90
2767;DHT22;1391;46.74287300;11.63683300;2023-04-24T08:25:20;9.90;99.90
2767;DHT22;1391;46.74287300;11.63683300;2023-04-24T08:27:49;9.70;99.90
2767;DHT22;1391;46.74287300;11.63683300;2023-04-24T08:30:16;9.80;99.90
2767;DHT22;1391;46.74287300;11.63683300;2023-04-24T08:32:44;9.50;99.90
2767;DHT22;1391;46.74287300;11.63683300;2023-04-24T08:35:12;10.10;99.90
2767;DHT22;1391;46.74287300;11.63683300;2023-04-24T08:37:40;10.10;99.90
2767;DHT22;1391;46.74287300;11.63683300;2023-04-24T08:40:12;9.40;99.90
2767;DHT22;1391;46.74287300;11.63683300;2023-04-24T08:42:42;9.40;99.90
2767;DHT22;1391;46.74287300;11.63683300;2023-04-24T08:45:11;9.80;99.90
2767;DHT22;1391;46.74287300;11.63683300;2023-04-24T08:47:39;10.20;99.90
2767;DHT22;1391;46.74287300;11.63683300;2023-04-24T08:50:08;9.90;99.90
2767;DHT22;1391;46.74287300;11.63683300;2023-04-24T08:52:38;10.10;99.90
2767;DHT22;1391;46.74287300;11.63683300;2023-04-24T08:55:06;9.70;99.90
2767;DHT22;1391;46.74287300;11.63683300;2023-04-24T08:57:33;10.30;99.90
2767;DHT22;1391;46.74287300;11.63683300;2023-04-24T09:00:02;10.10;99.90
2767;DHT22;1391;46.74287300;11.63683300;2023-04-24T09:02:30;10.10;99.90
2767;DHT22;1391;46.74287300;11.63683300;2023-04-24T09:05:00;10.10;99.90
2767;DHT22;1391;46.74287300;11.63683300;2023-04-24T09:07:30;10.50;99.90
2767;DHT22;1391;46.74287300;11.63683300;2023-04-24T09:10:03;10.10;99.90
2767;DHT22;1391;46.74287300;11.63683300;2023-04-24T09:12:31;10.10;99.90
2767;DHT22;1391;46.74287300;11.63683300;2023-04-24T09:14:59;10.10;99.90
2767;DHT22;1391;46.74287300;11.63683300;2023-04-24T09:17:27;10.10;99.90
2767;DHT22;1391;46.74287300;11.63683300;2023-04-24T09:19:55;10.10;99.90
2767;DHT22;1391;46.74287300;11.63683300;2023-04-24T09:22:22;10.10;99.90
2767;DHT22;1391;46.74287300;11.63683300;2023-04-24T09:25:03;10.80;99.90
2767;DHT22;1391;46.74287300;11.63683300;2023-04-24T09:27:32;10.50;99.90
2767;DHT22;1391;46.74287300;11.63683300;2023-04-24T09:30:00;10.50;99.90
2767;DHT22;1391;46.74287300;11.63683300;2023-04-24T09:32:28;11.30;99.90
2767;DHT22;1391;46.74287300;11.63683300;2023-04-24T09:35:08;10.90;99.90
2767;DHT22;1391;46.74287300;11.63683300;2023-04-24T09:37:37;11.20;99.90
2767;DHT22;1391;46.74287300;11.63683300;2023-04-24T09:40:16;10.90;99.90
2767;DHT22;1391;46.74287300;11.63683300;2023-04-24T09:42:45;11.20;99.90
2767;DHT22;1391;46.74287300;11.63683300;2023-04-24T09:45:13;11.00;99.90
2767;DHT22;1391;46.74287300;11.63683300;2023-04-24T09:47:41;11.20;99.90
2767;DHT22;1391;46.74287300;11.63683300;2023-04-24T09:50:13;11.30;99.90
2767;DHT22;1391;46.74287300;11.63683300;2023-04-24T09:52:46;11.30;99.90
2767;DHT22;1391;46.74287300;11.63683300;2023-04-24T09:55:18;11.40;99.90
2767;DHT22;1391;46.74287300;11.63683300;2023-04-24T09:57:54;11.60;99.90
2767;DHT22;1391;46.74287300;11.63683300;2023-04-24T10:00:24;11.60;99.90
2767;DHT22;1391;46.74287300;11.63683300;2023-04-24T10:03:03;11.60;99.90
2767;DHT22;1391;46.74287300;11.63683300;2023-04-24T10:05:32;11.60;99.90
2767;DHT22;1391;46.74287300;11.63683300;2023-04-24T10:08:03;11.30;99.90
2767;DHT22;1391;46.74287300;11.63683300;2023-04-24T10:10:35;11.60;99.90
2767;DHT22;1391;46.74287300;11.63683300;2023-04-24T10:13:05;11.60;99.90
2767;DHT22;1391;46.74287300;11.63683300;2023-04-24T10:15:34;11.60;99.90
2767;DHT22;1391;46.74287300;11.63683300;2023-04-24T10:18:04;11.70;95.60
2767;DHT22;1391;46.74287300;11.63683300;2023-04-24T10:20:33;11.70;95.50
2767;DHT22;1391;46.74287300;11.63683300;2023-04-24T10:23:01;11.60;94.60
2767;DHT22;1391;46.74287300;11.63683300;2023-04-24T10:25:30;11.50;96.80
2767;DHT22;1391;46.74287300;11.63683300;2023-04-24T10:28:00;11.70;94.80
2767;DHT22;1391;46.74287300;11.63683300;2023-04-24T10:30:30;11.80;93.90
2767;DHT22;1391;46.74287300;11.63683300;2023-04-24T10:33:00;11.80;95.90
2767;DHT22;1391;46.74287300;11.63683300;2023-04-24T10:35:31;11.90;96.90
2767;DHT22;1391;46.74287300;11.63683300;2023-04-24T10:38:01;12.10;94.60
2767;DHT22;1391;46.74287300;11.63683300;2023-04-24T10:40:32;12.20;98.30
2767;DHT22;1391;46.74287300;11.63683300;2023-04-24T10:43:04;12.40;92.10
2767;DHT22;1391;46.74287300;11.63683300;2023-04-24T10:45:33;12.20;93.60
2767;DHT22;1391;46.74287300;11.63683300;2023-04-24T10:48:05;12.80;98.00
2767;DHT22;1391;46.74287300;11.63683300;2023-04-24T10:50:44;12.20;92.00
2767;DHT22;1391;46.74287300;11.63683300;2023-04-24T10:53:16;12.40;95.20
2767;DHT22;1391;46.74287300;11.63683300;2023-04-24T10:55:47;12.50;93.00
2767;DHT22;1391;46.74287300;11.63683300;2023-04-24T10:58:17;12.70;89.60
2767;DHT22;1391;46.74287300;11.63683300;2023-04-24T11:00:56;12.60;89.80
2767;DHT22;1391;46.74287300;11.63683300;2023-04-24T11:03:26;12.50;91.70
2767;DHT22;1391;46.74287300;11.63683300;2023-04-24T11:05:59;12.70;89.00
2767;DHT22;1391;46.74287300;11.63683300;2023-04-24T11:08:30;12.60;86.50
2767;DHT22;1391;46.74287300;11.63683300;2023-04-24T11:11:07;13.40;85.40
2767;DHT22;1391;46.74287300;11.63683300;2023-04-24T11:14:03;13.00;72.90
2767;DHT22;1391;46.74287300;11.63683300;2023-04-24T11:16:34;13.10;74.70
2767;DHT22;1391;46.74287300;11.63683300;2023-04-24T11:19:05;13.50;72.30
2767;DHT22;1391;46.74287300;11.63683300;2023-04-24T11:21:41;13.20;72.60
2767;DHT22;1391;46.74287300;11.63683300;2023-04-24T11:24:27;13.60;70.00
2767;DHT22;1391;46.74287300;11.63683300;2023-04-24T11:27:05;13.60;71.40
2767;DHT22;1391;46.74287300;11.63683300;2023-04-24T11:29:45;13.70;67.40
2767;DHT22;1391;46.74287300;11.63683300;2023-04-24T11:32:18;13.50;67.90
2767;DHT22;1391;46.74287300;11.63683300;2023-04-24T11:34:51;13.60;69.40
2767;DHT22;1391;46.74287300;11.63683300;2023-04-24T11:37:23;13.40;62.90
2767;DHT22;1391;46.74287300;11.63683300;2023-04-24T11:39:52;13.50;66.80
2767;DHT22;1391;46.74287300;11.63683300;2023-04-24T11:42:22;13.20;69.60
2767;DHT22;1391;46.74287300;11.63683300;2023-04-24T11:44:54;13.50;68.80
2767;DHT22;1391;46.74287300;11.63683300;2023-04-24T11:47:28;13.50;71.70
2767;DHT22;1391;46.74287300;11.63683300;2023-04-24T11:49:58;13.10;64.30
2767;DHT22;1391;46.74287300;11.63683300;2023-04-24T11:52:25;13.10;70.70
2767;DHT22;1391;46.74287300;11.63683300;2023-04-24T11:54:53;13.50;66.30
2767;DHT22;1391;46.74287300;11.63683300;2023-04-24T11:57:23;13.60;66.50
2767;DHT22;1391;46.74287300;11.63683300;2023-04-24T11:59:54;13.70;67.70
2767;DHT22;1391;46.74287300;11.63683300;2023-04-24T12:02:23;13.70;67.10
2767;DHT22;1391;46.74287300;11.63683300;2023-04-24T12:04:51;13.90;70.70
2767;DHT22;1391;46.74287300;11.63683300;2023-04-24T12:07:19;14.40;69.00
2767;DHT22;1391;46.74287300;11.63683300;2023-04-24T12:09:48;14.50;70.90
2767;DHT22;1391;46.74287300;11.63683300;2023-04-24T12:12:17;14.40;61.60
2767;DHT22;1391;46.74287300;11.63683300;2023-04-24T12:14:47;14.40;63.40
2767;DHT22;1391;46.74287300;11.63683300;2023-04-24T12:17:17;13.70;59.70
2767;DHT22;1391;46.74287300;11.63683300;2023-04-24T12:19:46;14.30;61.80
2767;DHT22;1391;46.74287300;11.63683300;2023-04-24T12:22:15;14.40;57.10
2767;DHT22;1391;46.74287300;11.63683300;2023-04-24T12:25:02;14.10;60.20
2767;DHT22;1391;46.74287300;11.63683300;2023-04-24T12:27:32;14.20;66.20
2767;DHT22;1391;46.74287300;11.63683300;2023-04-24T12:30:01;14.30;61.60
2767;DHT22;1391;46.74287300;11.63683300;2023-04-24T12:32:31;14.90;61.20
2767;DHT22;1391;46.74287300;11.63683300;2023-04-24T12:34:59;14.50;58.50
2767;DHT22;1391;46.74287300;11.63683300;2023-04-24T12:37:33;14.20;57.30
2767;DHT22;1391;46.74287300;11.63683300;2023-04-24T12:40:03;14.80;57.10
2767;DHT22;1391;46.74287300;11.63683300;2023-04-24T12:42:33;15.00;53.80
2767;DHT22;1391;46.74287300;11.63683300;2023-04-24T12:45:02;15.10;56.50
2767;DHT22;1391;46.74287300;11.63683300;2023-04-24T12:47:32;14.80;53.60
2767;DHT22;1391;46.74287300;11.63683300;2023-04-24T12:50:01;15.50;53.00
2767;DHT22;1391;46.74287300;11.63683300;2023-04-24T12:52:29;15.20;49.70
2767;DHT22;1391;46.74287300;11.63683300;2023-04-24T12:54:58;15.50;52.20
2767;DHT22;1391;46.74287300;11.63683300;2023-04-24T12:57:28;15.20;55.10
2767;DHT22;1391;46.74287300;11.63683300;2023-04-24T12:59:57;16.10;53.60
2767;DHT22;1391;46.74287300;11.63683300;2023-04-24T13:02:26;16.50;51.30
2767;DHT22;1391;46.74287300;11.63683300;2023-04-24T13:04:58;16.20;44.80
2767;DHT22;1391;46.74287300;11.63683300;2023-04-24T13:07:25;16.20;44.60
2767;DHT22;1391;46.74287300;11.63683300;2023-04-24T13:09:54;16.10;49.90
2767;DHT22;1391;46.74287300;11.63683300;2023-04-24T13:12:22;15.90;45.00
2767;DHT22;1391;46.74287300;11.63683300;2023-04-24T13:14:51;15.60;41.80
2767;DHT22;1391;46.74287300;11.63683300;2023-04-24T13:17:18;15.60;43.70
2767;DHT22;1391;46.74287300;11.63683300;2023-04-24T13:19:45;15.60;43.00
2767;DHT22;1391;46.74287300;11.63683300;2023-04-24T13:22:14;15.60;40.90
2767;DHT22;1391;46.74287300;11.63683300;2023-04-24T13:24:42;15.60;37.90
2767;DHT22;1391;46.74287300;11.63683300;2023-04-24T13:27:10;16.30;39.50
2767;DHT22;1391;46.74287300;11.63683300;2023-04-24T13:29:38;16.20;39.20
2767;DHT22;1391;46.74287300;11.63683300;2023-04-24T13:32:06;16.20;41.00
2767;DHT22;1391;46.74287300;11.63683300;2023-04-24T13:34:34;16.20;37.80
2767;DHT22;1391;46.74287300;11.63683300;2023-04-24T13:37:02;16.20;31.30
2767;DHT22;1391;46.74287300;11.63683300;2023-04-24T13:39:32;16.20;34.60
2767;DHT22;1391;46.74287300;11.63683300;2023-04-24T13:41:59;16.40;33.80
2767;DHT22;1391;46.74287300;11.63683300;2023-04-24T13:44:27;16.20;29.30
2767;DHT22;1391;46.74287300;11.63683300;2023-04-24T13:46:55;15.60;32.10
2767;DHT22;1391;46.74287300;11.63683300;2023-04-24T13:49:24;15.70;25.50